createdAt,value
2019-04-22T00:02:13.250Z,8.60
2019-04-22T00:04:56.288Z,8.60
2019-04-22T00:07:44.246Z,8.60
2019-04-22T00:10:11.867Z,8.40
2019-04-22T00:12:47.252Z,8.40
2019-04-22T00:15:15.241Z,8.40
2019-04-22T00:18:03.307Z,8.40
2019-04-22T00:20:22.991Z,8.30
2019-04-22T00:22:51.925Z,8.30
2019-04-22T00:25:34.503Z,8.40
2019-04-22T00:28:02.432Z,8.30
2019-04-22T00:30:28.411Z,8.30
2019-04-22T00:33:24.479Z,8.20
2019-04-22T00:35:54.501Z,8.20
2019-04-22T00:38:35.691Z,8.10
2019-04-22T00:41:01.099Z,8.00
2019-04-22T00:43:32.480Z,8.00
2019-04-22T00:46:09.695Z,8.00
2019-04-22T00:49:29.593Z,7.90
2019-04-22T00:51:12.413Z,7.80
2019-04-22T00:53:39.219Z,7.80
2019-04-22T00:58:45.412Z,7.70
2019-04-22T01:01:21.555Z,7.70
2019-04-22T01:03:58.393Z,7.60
2019-04-22T01:08:57.949Z,7.60
2019-04-22T01:11:29.891Z,7.70
2019-04-22T01:14:01.369Z,7.70
2019-04-22T01:16:39.277Z,7.70
2019-04-22T01:19:06.556Z,7.50
2019-04-22T01:21:42.172Z,7.60
2019-04-22T01:24:12.127Z,7.60
2019-04-22T01:26:41.797Z,7.50
2019-04-22T01:29:11.061Z,7.40
2019-04-22T01:31:34.051Z,7.30
2019-04-22T01:34:16.168Z,7.30
2019-04-22T01:36:52.878Z,7.20
2019-04-22T01:39:40.285Z,7.20
2019-04-22T01:42:16.832Z,7.20
2019-04-22T01:44:38.643Z,7.30
2019-04-22T01:47:11.442Z,7.30
2019-04-22T01:49:44.154Z,7.20
2019-04-22T01:52:17.863Z,7.10
2019-04-22T01:54:52.712Z,7.10
2019-04-22T01:57:19.075Z,7.00
2019-04-22T01:59:45.920Z,6.80
2019-04-22T02:02:43.492Z,6.80
2019-04-22T02:04:59.960Z,6.80
2019-04-22T02:07:32.377Z,6.80
2019-04-22T02:10:03.969Z,6.70
2019-04-22T02:15:09.254Z,6.70
2019-04-22T02:17:46.947Z,6.80
2019-04-22T02:20:23.100Z,6.80
2019-04-22T02:28:39.993Z,6.50
2019-04-22T02:31:25.934Z,6.50
2019-04-22T02:41:23.099Z,6.30
2019-04-22T02:44:04.036Z,6.30
2019-04-22T02:51:22.680Z,6.20
2019-04-22T02:56:31.452Z,6.10
2019-04-22T02:59:09.545Z,6.10
2019-04-22T03:01:39.741Z,6.00
2019-04-22T03:04:20.530Z,5.90
2019-04-22T03:09:14.462Z,5.90
2019-04-22T03:14:13.436Z,5.90
2019-04-22T03:16:48.807Z,5.90
2019-04-22T03:19:36.663Z,5.80
2019-04-22T03:21:57.657Z,5.70
2019-04-22T03:24:25.828Z,5.70
2019-04-22T03:27:02.945Z,5.70
2019-04-22T03:30:33.273Z,5.70
2019-04-22T03:37:49.475Z,5.50
2019-04-22T04:08:15.110Z,5.20
2019-04-22T04:10:42.076Z,5.10
2019-04-22T04:13:30.360Z,5.20
2019-04-22T04:15:40.650Z,5.40
2019-04-22T04:18:30.332Z,5.70
2019-04-22T04:21:06.127Z,5.40
2019-04-22T04:23:32.453Z,5.40
2019-04-22T04:26:05.174Z,5.40
2019-04-22T04:31:02.667Z,5.60
2019-04-22T04:38:46.438Z,5.40
2019-04-22T04:41:19.931Z,5.40
2019-04-22T04:43:52.875Z,5.40
2019-04-22T04:46:24.806Z,5.50
2019-04-22T04:51:23.979Z,5.40
2019-04-22T04:53:58.300Z,5.50
2019-04-22T05:01:30.931Z,5.60
2019-04-22T05:04:11.326Z,5.70
2019-04-22T05:11:47.423Z,5.80
2019-04-22T05:14:09.533Z,5.90
2019-04-22T05:19:15.929Z,6.00
2019-04-22T05:21:50.729Z,6.10
2019-04-22T05:26:52.792Z,6.20
2019-04-22T05:34:21.513Z,6.50
2019-04-22T05:36:57.137Z,6.60
2019-04-22T05:39:21.517Z,6.70
2019-04-22T05:42:07.502Z,6.90
2019-04-22T05:44:39.560Z,6.90
2019-04-22T05:47:08.116Z,8.20
2019-04-22T05:49:35.020Z,9.20
2019-04-22T05:52:12.570Z,10.60
2019-04-22T05:54:42.769Z,11.60
2019-04-22T05:59:56.613Z,13.10
2019-04-22T06:02:36.047Z,13.70
2019-04-22T06:04:54.960Z,14.70
2019-04-22T06:07:19.704Z,15.30
2019-04-22T06:10:02.995Z,15.00
2019-04-22T06:12:23.459Z,15.50
2019-04-22T06:17:38.974Z,14.80
2019-04-22T06:20:02.177Z,16.30
2019-04-22T06:22:43.321Z,16.40
2019-04-22T06:27:41.318Z,15.60
2019-04-22T06:30:15.665Z,14.50
2019-04-22T06:32:46.941Z,16.00
2019-04-22T06:38:09.739Z,17.80
2019-04-22T06:50:39.645Z,19.70
2019-04-22T06:53:04.481Z,20.00
2019-04-22T06:55:43.532Z,20.20
2019-04-22T06:58:10.174Z,19.90
2019-04-22T07:03:39.875Z,19.60
2019-04-22T07:08:39.427Z,20.20
2019-04-22T07:13:42.910Z,20.70
2019-04-22T07:18:31.220Z,19.80
2019-04-22T07:21:01.391Z,20.00
2019-04-22T07:23:45.724Z,21.70
2019-04-22T07:26:04.268Z,20.60
2019-04-22T07:28:29.423Z,21.60
2019-04-22T07:31:12.983Z,20.10
2019-04-22T07:36:44.470Z,21.50
2019-04-22T07:38:42.813Z,21.60
2019-04-22T07:41:24.839Z,21.00
2019-04-22T07:44:12.011Z,20.80
2019-04-22T07:46:27.955Z,20.70
2019-04-22T07:49:06.549Z,20.80
2019-04-22T07:51:32.894Z,20.80
2019-04-22T07:54:03.377Z,20.80
2019-04-22T07:56:54.975Z,20.80
2019-04-22T07:59:09.494Z,20.90
2019-04-22T08:01:39.795Z,20.90
2019-04-22T08:04:21.281Z,21.20
2019-04-22T08:09:19.637Z,20.90
2019-04-22T08:11:51.212Z,21.10
2019-04-22T08:14:27.054Z,21.40
2019-04-22T08:17:01.635Z,21.50
2019-04-22T08:21:59.990Z,21.90
2019-04-22T08:24:35.938Z,22.70
2019-04-22T08:26:59.353Z,22.40
2019-04-22T08:32:05.166Z,22.70
2019-04-22T08:34:40.420Z,23.00
2019-04-22T08:49:59.632Z,25.30
2019-04-22T08:52:26.118Z,24.50
2019-04-22T08:54:57.312Z,24.60
2019-04-22T08:57:40.794Z,24.60
2019-04-22T08:59:59.031Z,25.10
2019-04-22T09:02:34.545Z,25.00
2019-04-22T09:05:10.656Z,25.90
2019-04-22T09:07:36.826Z,25.80
2019-04-22T09:10:14.880Z,25.30
2019-04-22T09:15:16.560Z,25.10
2019-04-22T09:17:47.811Z,25.40
2019-04-22T09:20:32.519Z,25.40
2019-04-22T09:22:53.908Z,25.30
2019-04-22T09:25:26.905Z,25.30
2019-04-22T09:28:10.541Z,25.80
2019-04-22T09:38:23.406Z,25.80
2019-04-22T09:40:35.208Z,26.20
2019-04-22T09:45:43.903Z,26.50
2019-04-22T09:48:18.102Z,25.70
2019-04-22T09:53:20.178Z,27.00
2019-04-22T09:55:51.616Z,26.50
2019-04-22T09:58:23.311Z,26.90
2019-04-22T10:01:25.860Z,25.80
2019-04-22T10:06:27.815Z,26.00
2019-04-22T10:09:13.032Z,26.00
2019-04-22T10:14:12.336Z,25.60
2019-04-22T10:21:40.663Z,26.10
2019-04-22T10:24:09.103Z,26.20
2019-04-22T10:26:46.890Z,26.10
2019-04-22T10:29:30.390Z,26.10
2019-04-22T10:31:46.244Z,26.80
2019-04-22T10:34:05.593Z,27.00
2019-04-22T10:36:25.637Z,26.90
2019-04-22T10:38:56.274Z,26.90
2019-04-22T10:41:28.327Z,27.00
2019-04-22T10:43:59.397Z,26.40
2019-04-22T10:46:30.515Z,26.80
2019-04-22T10:49:01.986Z,26.90
2019-04-22T10:51:32.814Z,27.10
2019-04-22T10:54:03.411Z,26.50
2019-04-22T10:56:34.859Z,26.90
2019-04-22T10:59:06.804Z,26.70
2019-04-22T11:01:38.655Z,26.50
2019-04-22T11:04:09.358Z,26.40
2019-04-22T11:06:50.324Z,26.30
2019-04-22T11:09:12.559Z,26.60
2019-04-22T11:11:52.080Z,26.70
2019-04-22T11:14:16.842Z,27.10
2019-04-22T11:16:47.756Z,27.90
2019-04-22T11:22:01.024Z,27.00
2019-04-22T11:24:23.052Z,27.00
2019-04-22T11:26:54.985Z,27.00
2019-04-22T11:29:25.697Z,26.80
2019-04-22T11:31:56.683Z,28.10
2019-04-22T11:34:28.979Z,28.00
2019-04-22T11:37:00.925Z,28.30
2019-04-22T11:39:36.480Z,28.00
2019-04-22T11:42:05.134Z,28.40
2019-04-22T11:44:37.107Z,27.60
2019-04-22T11:47:07.828Z,28.40
2019-04-22T11:49:39.636Z,27.80
2019-04-22T11:52:12.823Z,28.20
2019-04-22T11:54:43.249Z,26.70
2019-04-22T11:57:15.148Z,26.60
2019-04-22T11:59:46.944Z,26.80
2019-04-22T12:02:21.974Z,27.20
2019-04-22T12:04:53.653Z,26.40
2019-04-22T12:07:24.599Z,26.50
2019-04-22T12:09:55.588Z,26.70
2019-04-22T12:12:27.724Z,25.90
2019-04-22T12:14:58.696Z,25.90
2019-04-22T12:17:29.957Z,25.70
2019-04-22T12:20:03.313Z,25.60
2019-04-22T12:22:35.465Z,25.80
2019-04-22T12:25:08.125Z,25.90
2019-04-22T12:27:41.039Z,25.50
2019-04-22T12:30:12.482Z,25.20
2019-04-22T12:32:43.597Z,25.00
2019-04-22T12:35:17.643Z,25.40
2019-04-22T12:37:53.933Z,25.40
2019-04-22T12:40:34.199Z,25.80
2019-04-22T12:42:55.325Z,25.80
2019-04-22T12:45:26.680Z,25.20
2019-04-22T12:47:58.327Z,25.10
2019-04-22T12:50:33.716Z,25.20
2019-04-22T12:53:08.400Z,25.10
2019-04-22T12:55:34.296Z,25.10
2019-04-22T12:58:05.497Z,25.10
2019-04-22T13:00:36.368Z,24.90
2019-04-22T13:03:07.353Z,24.80
2019-04-22T13:05:38.067Z,24.90
2019-04-22T13:08:09.726Z,24.90
2019-04-22T13:10:51.600Z,25.10
2019-04-22T13:13:15.313Z,25.10
2019-04-22T13:18:27.672Z,26.10
2019-04-22T13:20:50.604Z,25.80
2019-04-22T13:23:22.166Z,26.30
2019-04-22T13:25:52.823Z,25.80
2019-04-22T13:28:25.103Z,25.60
2019-04-22T13:30:58.433Z,25.20
2019-04-22T13:33:28.680Z,25.30
2019-04-22T13:35:59.667Z,25.00
2019-04-22T13:38:31.176Z,25.20
2019-04-22T13:41:16.430Z,25.40
2019-04-22T13:43:34.713Z,25.50
2019-04-22T13:46:06.078Z,25.10
2019-04-22T13:49:03.830Z,25.60
2019-04-22T13:51:48.734Z,26.00
2019-04-22T13:54:42.404Z,25.80
2019-04-22T13:56:30.403Z,25.80
2019-04-22T13:58:58.492Z,25.40
2019-04-22T14:01:22.756Z,25.50
2019-04-22T14:04:02.571Z,25.70
2019-04-22T14:06:34.558Z,25.90
2019-04-22T14:09:07.625Z,25.90
2019-04-22T14:11:46.171Z,25.90
2019-04-22T14:14:10.921Z,25.70
2019-04-22T14:16:44.812Z,25.80
2019-04-22T14:19:16.059Z,25.80
2019-04-22T14:21:47.491Z,25.30
2019-04-22T14:24:19.630Z,25.10
2019-04-22T14:27:03.587Z,25.50
2019-04-22T14:32:04.240Z,25.80
2019-04-22T14:34:26.595Z,25.10
2019-04-22T14:39:30.350Z,25.10
2019-04-22T14:42:27.116Z,25.00
2019-04-22T14:47:45.058Z,24.90
2019-04-22T14:50:02.727Z,24.90
2019-04-22T14:52:36.032Z,24.80
2019-04-22T14:54:54.400Z,24.80
2019-04-22T14:57:15.083Z,24.80
2019-04-22T14:59:48.154Z,24.50
2019-04-22T15:02:19.634Z,24.60
2019-04-22T15:04:51.932Z,24.50
2019-04-22T15:07:23.271Z,24.30
2019-04-22T15:09:53.880Z,24.20
2019-04-22T15:12:33.669Z,24.30
2019-04-22T15:14:59.566Z,24.50
2019-04-22T15:17:36.821Z,24.70
2019-04-22T15:20:19.974Z,24.60
2019-04-22T15:22:50.867Z,24.70
2019-04-22T15:25:22.768Z,24.80
2019-04-22T15:27:53.529Z,24.70
2019-04-22T15:30:25.531Z,24.80
2019-04-22T15:32:57.226Z,24.50
2019-04-22T15:35:29.184Z,24.40
2019-04-22T15:38:01.391Z,24.40
2019-04-22T15:40:32.056Z,24.50
2019-04-22T15:43:02.791Z,24.50
2019-04-22T15:45:34.925Z,24.30
2019-04-22T15:48:06.149Z,24.50
2019-04-22T15:50:37.856Z,24.40
2019-04-22T15:53:09.818Z,24.40
2019-04-22T15:58:12.060Z,24.30
2019-04-22T16:00:55.443Z,24.30
2019-04-22T16:03:16.357Z,24.40
2019-04-22T16:05:48.024Z,24.30
2019-04-22T16:08:19.169Z,24.30
2019-04-22T16:10:49.847Z,24.30
2019-04-22T16:13:24.790Z,24.20
2019-04-22T16:15:54.269Z,24.10
2019-04-22T16:18:26.325Z,24.00
2019-04-22T16:20:59.781Z,24.00
2019-04-22T16:23:50.160Z,24.00
2019-04-22T16:26:58.289Z,24.00
2019-04-22T16:29:29.637Z,24.00
2019-04-22T16:32:01.198Z,24.00
2019-04-22T16:34:32.141Z,23.90
2019-04-22T16:37:02.954Z,23.90
2019-04-22T16:39:33.561Z,23.90
2019-04-22T16:42:04.763Z,23.80
2019-04-22T16:44:36.541Z,23.70
2019-04-22T16:47:08.030Z,23.60
2019-04-22T16:49:39.292Z,23.60
2019-04-22T16:52:10.135Z,23.60
2019-04-22T16:54:42.071Z,23.50
2019-04-22T16:57:12.793Z,23.40
2019-04-22T16:59:44.568Z,23.40
2019-04-22T17:05:09.477Z,23.20
2019-04-22T17:07:40.612Z,23.10
2019-04-22T17:10:13.657Z,23.10
2019-04-22T17:12:53.944Z,23.10
2019-04-22T17:15:18.558Z,22.90
2019-04-22T17:17:49.484Z,22.80
2019-04-22T17:20:20.946Z,22.80
2019-04-22T17:22:55.805Z,22.70
2019-04-22T17:25:27.524Z,22.60
2019-04-22T17:30:29.170Z,22.50
2019-04-22T17:35:31.599Z,22.40
2019-04-22T17:38:14.290Z,22.30
2019-04-22T17:40:52.312Z,22.30
2019-04-22T17:43:36.178Z,22.20
2019-04-22T17:46:03.118Z,22.00
2019-04-22T17:48:52.966Z,21.90
2019-04-22T17:51:39.354Z,21.90
2019-04-22T17:53:58.050Z,21.90
2019-04-22T17:56:30.779Z,21.80
2019-04-22T17:59:02.445Z,21.80
2019-04-22T18:01:35.563Z,21.60
2019-04-22T18:03:52.838Z,21.50
2019-04-22T18:06:44.048Z,21.50
2019-04-22T18:09:07.547Z,21.40
2019-04-22T18:11:51.262Z,21.50
2019-04-22T18:14:34.671Z,21.40
2019-04-22T18:19:21.049Z,21.30
2019-04-22T18:21:50.470Z,21.10
2019-04-22T18:24:12.993Z,21.00
2019-04-22T18:26:55.433Z,20.90
2019-04-22T18:29:31.574Z,20.80
2019-04-22T18:31:50.172Z,20.70
2019-04-22T18:34:25.544Z,20.60
2019-04-22T18:37:02.680Z,20.60
2019-04-22T18:39:44.310Z,20.40
2019-04-22T18:42:07.534Z,20.40
2019-04-22T18:44:46.119Z,20.40
2019-04-22T18:47:13.184Z,20.20
2019-04-22T18:49:42.883Z,20.10
2019-04-22T18:52:40.196Z,19.90
2019-04-22T18:55:16.373Z,19.80
2019-04-22T18:58:04.299Z,19.80
2019-04-22T19:00:23.458Z,19.90
2019-04-22T19:03:03.032Z,19.80
2019-04-22T19:05:46.823Z,19.70
2019-04-22T19:08:22.845Z,19.80
2019-04-22T19:13:54.456Z,19.30
2019-04-22T19:16:15.914Z,19.20
2019-04-22T19:18:50.439Z,19.20
2019-04-22T19:21:08.051Z,19.30
2019-04-22T19:23:31.997Z,19.20
2019-04-22T19:26:16.848Z,19.00
2019-04-22T19:31:17.393Z,18.80
2019-04-22T19:33:46.475Z,18.90
2019-04-22T19:36:32.275Z,18.60
2019-04-22T19:41:24.461Z,18.70
2019-04-22T19:43:57.673Z,18.70
2019-04-22T19:46:22.552Z,18.50
2019-04-22T19:49:05.129Z,18.50
2019-04-22T19:51:44.105Z,18.30
2019-04-22T19:54:04.239Z,18.30
2019-04-22T19:56:32.547Z,18.40
2019-04-22T20:02:07.342Z,18.20
2019-04-22T20:05:06.578Z,18.40
2019-04-22T20:07:40.622Z,18.50
2019-04-22T20:10:19.633Z,18.50
2019-04-22T20:12:48.681Z,18.60
2019-04-22T20:15:18.652Z,18.50
2019-04-22T20:18:19.210Z,18.50
2019-04-22T20:20:31.714Z,18.40
2019-04-22T20:22:57.497Z,18.50
2019-04-22T20:25:28.373Z,18.40
2019-04-22T20:28:06.187Z,18.30
2019-04-22T20:30:39.883Z,18.40
2019-04-22T20:33:05.370Z,18.40
2019-04-22T20:35:43.738Z,18.40
2019-04-22T20:40:42.601Z,18.20
2019-04-22T20:45:52.272Z,18.20
2019-04-22T20:48:08.976Z,18.00
2019-04-22T20:50:52.998Z,18.10
2019-04-22T20:53:31.222Z,18.00
2019-04-22T20:56:00.580Z,17.90
2019-04-22T20:58:33.079Z,17.90
2019-04-22T21:00:55.745Z,17.90
2019-04-22T21:06:00.834Z,17.70
2019-04-22T21:08:44.794Z,17.70
2019-04-22T21:11:12.713Z,17.60
2019-04-22T21:16:18.442Z,17.60
2019-04-22T21:18:44.721Z,17.60
2019-04-22T21:23:47.795Z,17.50
2019-04-22T21:26:24.257Z,17.40
2019-04-22T21:28:53.476Z,17.40
2019-04-22T21:31:33.950Z,17.50
2019-04-22T21:33:59.467Z,17.40
2019-04-22T21:36:35.588Z,17.40
2019-04-22T21:46:42.438Z,17.30
2019-04-22T21:49:18.959Z,17.30
2019-04-22T21:51:49.651Z,17.30
2019-04-22T21:54:22.477Z,17.30
2019-04-22T21:57:16.923Z,17.20
2019-04-22T22:02:16.170Z,17.20
2019-04-22T22:04:44.510Z,17.10
2019-04-22T22:07:07.622Z,17.10
2019-04-22T22:09:53.815Z,17.00
2019-04-22T22:12:26.392Z,17.00
2019-04-22T22:15:00.532Z,16.90
2019-04-22T22:17:28.481Z,16.90
2019-04-22T22:19:58.584Z,16.90
2019-04-22T22:25:11.134Z,16.90
2019-04-22T22:27:37.421Z,16.80
2019-04-22T22:30:33.525Z,16.70
2019-04-22T22:35:16.782Z,16.60
2019-04-22T22:37:44.464Z,16.50
2019-04-22T22:40:07.492Z,16.50
2019-04-22T22:42:38.157Z,16.50
2019-04-22T22:45:13.907Z,16.60
2019-04-22T22:50:27.463Z,16.40
2019-04-22T22:55:37.401Z,16.30
2019-04-22T22:58:14.372Z,16.40
2019-04-22T23:00:35.636Z,16.30
2019-04-22T23:05:55.383Z,16.30
2019-04-22T23:08:20.019Z,16.30
2019-04-22T23:10:55.925Z,16.20
2019-04-22T23:13:25.837Z,16.20
2019-04-22T23:15:46.593Z,16.00
2019-04-22T23:18:05.786Z,16.00
2019-04-22T23:20:41.789Z,16.00
2019-04-22T23:23:25.739Z,16.00
2019-04-22T23:26:02.675Z,16.00
2019-04-22T23:28:45.979Z,16.00
2019-04-22T23:31:37.634Z,15.90
2019-04-22T23:34:26.542Z,15.70
2019-04-22T23:37:24.508Z,15.70
2019-04-22T23:40:06.719Z,15.60
2019-04-22T23:42:27.233Z,15.70
2019-04-22T23:45:03.617Z,15.70
2019-04-22T23:47:32.427Z,15.70
2019-04-22T23:50:09.145Z,15.70
2019-04-22T23:52:54.591Z,15.60
2019-04-22T23:55:20.533Z,15.50
2019-04-22T23:57:58.475Z,15.40
